createdAt,value
2019-04-04T00:02:17.129Z,43.63
2019-04-04T00:04:46.780Z,43.92
2019-04-04T00:07:15.546Z,42.81
2019-04-04T00:09:44.262Z,42.02
2019-04-04T00:12:12.978Z,42.24
2019-04-04T00:14:44.259Z,42.86
2019-04-04T00:17:13.139Z,42.58
2019-04-04T00:19:41.850Z,42.74
2019-04-04T00:22:10.601Z,42.99
2019-04-04T00:24:39.927Z,43.59
2019-04-04T00:27:08.706Z,43.98
2019-04-04T00:29:38.453Z,43.64
2019-04-04T00:32:07.161Z,44.04
2019-04-04T00:34:35.876Z,44.36
2019-04-04T00:37:05.250Z,44.71
2019-04-04T00:39:34.120Z,45.14
2019-04-04T00:42:02.832Z,44.51
2019-04-04T00:44:31.574Z,45.11
2019-04-04T00:47:01.816Z,45.13
2019-04-04T00:49:30.689Z,44.77
2019-04-04T00:51:59.459Z,44.61
2019-04-04T00:54:28.272Z,45.23
2019-04-04T00:56:57.237Z,45.35
2019-04-04T00:59:27.452Z,45.55
2019-04-04T01:01:57.001Z,45.80
2019-04-04T01:04:26.460Z,45.53
2019-04-04T01:06:55.141Z,45.72
2019-04-04T01:09:23.852Z,45.33
2019-04-04T01:11:52.568Z,45.55
2019-04-04T01:14:22.337Z,46.51
2019-04-04T01:16:52.285Z,47.17
2019-04-04T01:19:21.195Z,47.26
2019-04-04T01:21:53.035Z,46.49
2019-04-04T01:24:20.382Z,46.11
2019-04-04T01:26:49.148Z,46.16
2019-04-04T01:29:17.902Z,46.03
2019-04-04T01:31:46.683Z,44.10
2019-04-04T01:34:15.419Z,45.11
2019-04-04T01:36:44.138Z,44.58
2019-04-04T01:39:12.930Z,44.70
2019-04-04T01:41:43.578Z,44.83
2019-04-04T01:44:12.221Z,44.40
2019-04-04T01:46:41.864Z,44.09
2019-04-04T01:49:10.507Z,43.84
2019-04-04T01:51:39.151Z,44.13
2019-04-04T01:54:07.867Z,45.53
2019-04-04T01:56:37.054Z,45.66
2019-04-04T01:59:07.509Z,46.27
2019-04-04T02:01:36.354Z,46.74
2019-04-04T02:04:04.999Z,46.36
2019-04-04T02:06:33.580Z,46.13
2019-04-04T02:09:02.820Z,45.76
2019-04-04T02:11:32.393Z,45.63
2019-04-04T02:14:05.108Z,45.32
2019-04-04T02:16:33.717Z,47.07
2019-04-04T02:19:02.461Z,47.21
2019-04-04T02:21:31.090Z,46.08
2019-04-04T02:24:01.660Z,46.78
2019-04-04T02:26:30.660Z,46.97
2019-04-04T02:29:01.014Z,46.84
2019-04-04T02:31:31.310Z,46.98
2019-04-04T02:34:05.339Z,46.39
2019-04-04T02:36:33.922Z,46.13
2019-04-04T02:39:11.152Z,47.02
2019-04-04T02:41:39.815Z,47.10
2019-04-04T02:44:08.773Z,47.77
2019-04-04T02:46:38.610Z,47.28
2019-04-04T02:49:07.259Z,46.51
2019-04-04T02:51:40.158Z,46.90
2019-04-04T02:54:06.324Z,46.50
2019-04-04T02:56:36.104Z,47.98
2019-04-04T02:59:06.433Z,48.19
2019-04-04T03:01:35.119Z,49.14
2019-04-04T03:04:03.857Z,49.03
2019-04-04T03:06:32.491Z,49.49
2019-04-04T03:09:01.002Z,49.61
2019-04-04T03:11:29.651Z,49.96
2019-04-04T03:13:58.290Z,49.87
2019-04-04T03:16:26.986Z,49.72
2019-04-04T03:18:56.815Z,49.65
2019-04-04T03:21:25.458Z,48.99
2019-04-04T03:23:53.990Z,49.10
2019-04-04T03:26:22.633Z,49.37
2019-04-04T03:28:52.753Z,48.85
2019-04-04T03:31:21.446Z,48.70
2019-04-04T03:33:50.103Z,47.97
2019-04-04T03:36:18.744Z,47.81
2019-04-04T03:38:47.601Z,47.85
2019-04-04T03:41:16.091Z,48.24
2019-04-04T03:43:48.096Z,48.05
2019-04-04T03:46:15.073Z,48.70
2019-04-04T03:48:43.789Z,49.01
2019-04-04T03:51:15.240Z,47.64
2019-04-04T03:53:51.440Z,46.90
2019-04-04T03:56:20.102Z,46.18
2019-04-04T03:58:48.667Z,47.11
2019-04-04T04:01:17.354Z,47.56
2019-04-04T04:03:46.003Z,47.78
2019-04-04T04:06:14.666Z,47.94
2019-04-04T04:08:43.339Z,47.83
2019-04-04T04:11:11.991Z,48.22
2019-04-04T04:13:40.634Z,48.38
2019-04-04T04:16:09.241Z,47.75
2019-04-04T04:18:38.170Z,47.78
2019-04-04T04:21:09.716Z,47.07
2019-04-04T04:23:37.198Z,47.96
2019-04-04T04:26:09.500Z,48.60
2019-04-04T04:28:36.208Z,48.92
2019-04-04T04:31:04.862Z,49.94
2019-04-04T04:33:33.441Z,49.93
2019-04-04T04:36:02.074Z,49.59
2019-04-04T04:38:30.831Z,48.24
2019-04-04T04:41:00.937Z,47.62
2019-04-04T04:43:32.419Z,54.13
2019-04-04T04:45:59.993Z,49.07
2019-04-04T04:48:31.836Z,51.91
2019-04-04T04:50:58.928Z,48.78
2019-04-04T04:53:27.474Z,47.80
2019-04-04T04:55:59.481Z,44.40
2019-04-04T04:58:26.490Z,45.41
2019-04-04T05:00:55.109Z,44.84
2019-04-04T05:03:24.268Z,44.83
2019-04-04T05:05:53.593Z,45.80
2019-04-04T05:08:22.448Z,44.11
2019-04-04T05:10:51.033Z,47.07
2019-04-04T05:13:19.691Z,48.09
2019-04-04T05:15:48.376Z,48.62
2019-04-04T05:18:17.165Z,49.29
2019-04-04T05:20:45.808Z,48.32
2019-04-04T05:23:15.605Z,48.39
2019-04-04T05:25:53.841Z,48.81
2019-04-04T05:28:15.359Z,49.68
2019-04-04T05:30:46.839Z,49.21
2019-04-04T05:33:14.567Z,48.74
2019-04-04T05:35:43.221Z,49.51
2019-04-04T05:38:12.468Z,47.89
2019-04-04T05:40:41.880Z,48.65
2019-04-04T05:43:10.940Z,46.91
2019-04-04T05:45:39.775Z,47.13
2019-04-04T05:48:08.339Z,47.29
2019-04-04T05:50:37.102Z,47.17
2019-04-04T05:53:06.014Z,45.34
2019-04-04T05:55:35.692Z,45.16
2019-04-04T05:58:04.415Z,46.13
2019-04-04T06:00:34.172Z,46.51
2019-04-04T06:03:02.885Z,46.77
2019-04-04T06:05:31.886Z,46.54
2019-04-04T06:08:01.069Z,46.37
2019-04-04T06:10:29.749Z,46.08
2019-04-04T06:12:58.432Z,45.85
2019-04-04T06:15:27.503Z,45.49
2019-04-04T06:17:56.095Z,45.78
2019-04-04T06:20:24.745Z,45.34
2019-04-04T06:22:53.481Z,45.18
2019-04-04T06:25:22.038Z,44.74
2019-04-04T06:27:50.701Z,44.81
2019-04-04T06:30:20.151Z,44.73
2019-04-04T06:32:49.279Z,44.37
2019-04-04T06:35:17.922Z,43.68
2019-04-04T06:37:46.641Z,43.68
2019-04-04T06:40:15.712Z,44.38
2019-04-04T06:42:46.011Z,43.75
2019-04-04T06:45:16.353Z,42.76
2019-04-04T06:47:45.037Z,43.28
2019-04-04T06:50:14.700Z,42.55
2019-04-04T06:52:43.381Z,43.33
2019-04-04T06:55:12.340Z,43.39
2019-04-04T06:57:40.997Z,43.59
2019-04-04T07:00:10.494Z,43.48
2019-04-04T07:02:39.179Z,43.22
2019-04-04T07:05:10.760Z,43.04
2019-04-04T07:07:43.169Z,42.16
2019-04-04T07:10:11.067Z,43.10
2019-04-04T07:12:39.543Z,43.74
2019-04-04T07:15:12.447Z,43.67
2019-04-04T07:17:41.307Z,42.80
2019-04-04T07:20:11.595Z,42.74
2019-04-04T07:22:40.276Z,42.72
2019-04-04T07:25:09.190Z,42.27
2019-04-04T07:27:45.330Z,41.77
2019-04-04T07:30:15.494Z,41.14
2019-04-04T07:32:44.544Z,41.18
2019-04-04T07:35:16.850Z,42.72
2019-04-04T07:37:45.623Z,43.16
2019-04-04T07:40:14.495Z,42.85
2019-04-04T07:42:47.906Z,42.43
2019-04-04T07:45:15.326Z,42.25
2019-04-04T07:47:46.678Z,42.26
2019-04-04T07:50:14.600Z,42.07
2019-04-04T07:52:43.240Z,41.70
2019-04-04T07:55:12.149Z,41.23
2019-04-04T07:57:40.831Z,41.52
2019-04-04T08:00:10.789Z,41.29
2019-04-04T08:02:39.471Z,41.23
2019-04-04T08:05:09.427Z,40.66
2019-04-04T08:07:38.080Z,40.52
2019-04-04T08:10:20.080Z,40.71
2019-04-04T08:12:38.540Z,40.03
2019-04-04T08:15:08.339Z,40.25
2019-04-04T08:17:37.461Z,40.17
2019-04-04T08:20:06.813Z,38.96
2019-04-04T08:22:35.470Z,38.65
2019-04-04T08:25:05.248Z,37.88
2019-04-04T08:27:33.836Z,37.26
2019-04-04T08:30:05.282Z,37.54
2019-04-04T08:32:36.611Z,37.19
2019-04-04T08:35:08.311Z,37.08
2019-04-04T08:37:39.837Z,36.20
2019-04-04T08:40:10.615Z,36.33
2019-04-04T08:42:39.306Z,36.60
2019-04-04T08:45:09.426Z,35.53
2019-04-04T08:47:38.136Z,35.10
2019-04-04T08:50:10.306Z,34.51
2019-04-04T08:52:38.938Z,34.12
2019-04-04T08:55:08.456Z,33.16
2019-04-04T08:57:37.120Z,33.42
2019-04-04T09:00:08.355Z,33.58
2019-04-04T09:02:38.796Z,33.90
2019-04-04T09:05:12.234Z,33.33
2019-04-04T09:07:43.458Z,33.00
2019-04-04T09:10:13.471Z,34.31
2019-04-04T09:12:44.929Z,34.36
2019-04-04T09:15:13.518Z,33.15
2019-04-04T09:17:43.874Z,33.18
2019-04-04T09:20:13.285Z,34.51
2019-04-04T09:22:41.954Z,34.19
2019-04-04T09:25:12.841Z,34.07
2019-04-04T09:27:42.485Z,33.60
2019-04-04T09:30:12.187Z,33.31
2019-04-04T09:32:41.351Z,34.03
2019-04-04T09:35:10.394Z,33.85
2019-04-04T09:37:39.042Z,32.57
2019-04-04T09:40:09.504Z,32.26
2019-04-04T09:42:38.163Z,32.50
2019-04-04T09:45:09.267Z,32.42
2019-04-04T09:47:38.356Z,32.98
2019-04-04T09:50:09.281Z,33.68
2019-04-04T09:52:37.917Z,34.06
2019-04-04T09:55:08.924Z,33.10
2019-04-04T09:57:37.578Z,33.52
2019-04-04T10:00:09.146Z,32.71
2019-04-04T10:02:37.876Z,34.07
2019-04-04T10:05:08.224Z,32.98
2019-04-04T10:07:37.131Z,32.66
2019-04-04T10:10:10.968Z,32.06
2019-04-04T10:12:40.673Z,32.58
2019-04-04T10:15:09.810Z,33.33
2019-04-04T10:17:38.544Z,33.47
2019-04-04T10:20:07.714Z,32.93
2019-04-04T10:22:36.388Z,32.29
2019-04-04T10:25:20.907Z,31.98
2019-04-04T10:30:51.666Z,31.66
2019-04-04T10:33:20.374Z,32.15
2019-04-04T10:35:48.890Z,32.38
2019-04-04T10:38:17.853Z,32.33
2019-04-04T10:40:46.568Z,32.08
2019-04-04T10:43:15.238Z,31.15
2019-04-04T10:45:44.104Z,31.43
2019-04-04T10:48:13.936Z,32.73
2019-04-04T10:50:42.563Z,32.35
2019-04-04T10:53:12.712Z,31.78
2019-04-04T10:55:41.372Z,31.39
2019-04-04T10:58:10.589Z,30.99
2019-04-04T11:00:39.249Z,30.88
2019-04-04T11:03:10.803Z,30.88
2019-04-04T11:05:39.372Z,31.00
2019-04-04T11:08:08.085Z,30.95
2019-04-04T11:10:36.741Z,30.95
2019-04-04T11:13:05.511Z,30.92
2019-04-04T11:15:34.176Z,31.25
2019-04-04T11:18:02.881Z,32.33
2019-04-04T11:20:31.476Z,31.87
2019-04-04T11:23:00.201Z,31.80
2019-04-04T11:25:30.371Z,31.83
2019-04-04T11:27:59.027Z,31.67
2019-04-04T11:30:28.786Z,31.45
2019-04-04T11:32:57.439Z,30.71
2019-04-04T11:35:26.098Z,30.71
2019-04-04T11:37:54.820Z,30.71
2019-04-04T11:40:23.417Z,30.71
2019-04-04T11:42:52.076Z,30.57
2019-04-04T11:45:20.738Z,30.48
2019-04-04T11:47:56.984Z,30.32
2019-04-04T11:50:25.692Z,30.32
2019-04-04T11:52:55.812Z,30.26
2019-04-04T11:55:25.928Z,30.58
2019-04-04T11:58:19.905Z,30.86
2019-04-04T12:00:39.967Z,30.96
2019-04-04T12:03:10.406Z,30.50
2019-04-04T12:05:48.339Z,30.07
2019-04-04T12:08:17.286Z,30.89
2019-04-04T12:10:47.400Z,31.11
2019-04-04T12:13:16.089Z,30.82
2019-04-04T12:15:44.786Z,31.00
2019-04-04T12:18:13.475Z,30.32
2019-04-04T12:20:43.549Z,30.54
2019-04-04T12:23:17.697Z,30.60
2019-04-04T12:25:46.955Z,30.89
2019-04-04T12:28:15.629Z,31.43
2019-04-04T12:30:44.372Z,31.29
2019-04-04T12:33:13.136Z,31.09
2019-04-04T12:35:41.844Z,31.30
2019-04-04T12:38:10.731Z,31.17
2019-04-04T12:40:39.402Z,31.08
2019-04-04T12:43:08.122Z,31.09
2019-04-04T12:45:36.849Z,30.64
2019-04-04T12:48:05.475Z,30.87
2019-04-04T12:50:34.636Z,30.16
2019-04-04T12:53:03.489Z,30.11
2019-04-04T12:55:32.131Z,30.13
2019-04-04T12:58:00.772Z,30.12
2019-04-04T13:00:29.459Z,29.74
2019-04-04T13:02:58.065Z,29.49
2019-04-04T13:05:26.710Z,28.97
2019-04-04T13:07:55.296Z,28.97
2019-04-04T13:10:32.965Z,28.57
2019-04-04T13:12:55.302Z,27.80
2019-04-04T13:15:24.009Z,28.01
2019-04-04T13:17:57.855Z,28.20
2019-04-04T13:20:26.494Z,27.99
2019-04-04T13:22:55.315Z,27.99
2019-04-04T13:25:24.076Z,28.51
2019-04-04T13:27:52.647Z,28.40
2019-04-04T13:30:21.894Z,28.36
2019-04-04T13:32:50.539Z,28.78
2019-04-04T13:35:19.178Z,28.78
2019-04-04T13:37:47.905Z,29.14
2019-04-04T13:40:16.679Z,29.08
2019-04-04T13:42:45.430Z,28.86
2019-04-04T13:45:15.543Z,28.57
2019-04-04T13:47:44.184Z,28.71
2019-04-04T13:50:13.380Z,28.87
2019-04-04T13:52:42.020Z,29.23
2019-04-04T13:55:10.671Z,28.97
2019-04-04T13:57:41.030Z,28.70
2019-04-04T14:00:10.979Z,28.35
2019-04-04T14:02:39.625Z,28.23
2019-04-04T14:05:13.977Z,28.26
2019-04-04T14:07:43.686Z,28.44
2019-04-04T14:10:16.852Z,28.25
2019-04-04T14:12:44.323Z,28.25
2019-04-04T14:15:12.984Z,28.68
2019-04-04T14:17:43.900Z,29.11
2019-04-04T14:20:14.678Z,29.39
2019-04-04T14:22:43.329Z,29.24
2019-04-04T14:25:12.254Z,29.13
2019-04-04T14:27:43.528Z,29.68
2019-04-04T14:30:15.275Z,29.68
2019-04-04T14:32:44.097Z,29.36
2019-04-04T14:35:12.735Z,29.33
2019-04-04T14:37:41.235Z,29.57
2019-04-04T14:40:10.796Z,29.71
2019-04-04T14:42:39.540Z,29.56
2019-04-04T14:45:09.913Z,29.89
2019-04-04T14:47:38.636Z,30.36
2019-04-04T14:50:10.436Z,30.55
2019-04-04T14:52:39.749Z,30.69
2019-04-04T14:55:09.113Z,30.79
2019-04-04T14:57:37.767Z,30.86
2019-04-04T15:00:09.653Z,31.03
2019-04-04T15:02:38.400Z,30.98
2019-04-04T15:05:07.461Z,31.10
2019-04-04T15:07:36.116Z,31.37
2019-04-04T15:10:05.334Z,31.47
2019-04-04T15:12:33.922Z,31.36
2019-04-04T15:15:04.330Z,31.31
2019-04-04T15:17:32.981Z,31.36
2019-04-04T15:20:01.629Z,31.36
2019-04-04T15:22:31.911Z,31.49
2019-04-04T15:25:00.752Z,31.69
2019-04-04T15:27:29.535Z,31.66
2019-04-04T15:29:58.655Z,31.81
2019-04-04T15:32:27.301Z,31.63
2019-04-04T15:34:57.128Z,31.82
2019-04-04T15:37:25.828Z,31.83
2019-04-04T15:39:55.349Z,31.96
2019-04-04T15:42:23.997Z,32.01
2019-04-04T15:44:52.654Z,32.00
2019-04-04T15:47:21.927Z,32.24
2019-04-04T15:49:50.402Z,32.24
2019-04-04T15:52:19.069Z,32.27
2019-04-04T15:54:47.760Z,32.32
2019-04-04T15:57:16.431Z,32.64
2019-04-04T15:59:45.019Z,32.51
2019-04-04T16:02:13.706Z,32.82
2019-04-04T16:04:42.356Z,32.86
2019-04-04T16:07:11.671Z,32.82
2019-04-04T16:09:40.331Z,32.92
2019-04-04T16:12:08.940Z,32.99
2019-04-04T16:14:38.470Z,32.87
2019-04-04T16:17:07.789Z,32.90
2019-04-04T16:19:36.378Z,33.09
2019-04-04T16:22:06.679Z,33.20
2019-04-04T16:24:35.576Z,33.27
2019-04-04T16:27:04.517Z,33.24
2019-04-04T16:29:33.190Z,33.29
2019-04-04T16:32:01.980Z,33.40
2019-04-04T16:34:30.494Z,33.61
2019-04-04T16:36:59.135Z,33.74
2019-04-04T16:39:27.823Z,33.86
2019-04-04T16:42:02.461Z,33.85
2019-04-04T16:44:27.499Z,34.13
2019-04-04T16:46:56.710Z,34.21
2019-04-04T16:49:26.452Z,34.42
2019-04-04T16:51:55.131Z,34.61
2019-04-04T16:54:23.755Z,34.68
2019-04-04T16:56:52.496Z,34.97
2019-04-04T16:59:21.146Z,34.99
2019-04-04T17:01:50.263Z,35.19
2019-04-04T17:04:18.917Z,35.18
2019-04-04T17:06:47.608Z,35.23
2019-04-04T17:09:16.568Z,35.55
2019-04-04T17:11:45.220Z,35.78
2019-04-04T17:14:13.868Z,35.73
2019-04-04T17:16:42.565Z,36.00
2019-04-04T17:19:11.148Z,36.15
2019-04-04T17:21:39.733Z,36.24
2019-04-04T17:24:08.704Z,36.30
2019-04-04T17:26:37.283Z,36.44
2019-04-04T17:29:06.033Z,36.40
2019-04-04T17:31:34.717Z,36.37
2019-04-04T17:34:03.358Z,36.58
2019-04-04T17:36:32.096Z,36.73
2019-04-04T17:39:00.683Z,36.78
2019-04-04T17:41:29.336Z,36.94
2019-04-04T17:43:58.105Z,36.97
2019-04-04T17:46:26.756Z,37.14
2019-04-04T17:48:55.403Z,37.41
2019-04-04T17:51:24.069Z,37.32
2019-04-04T17:53:53.551Z,37.70
2019-04-04T17:56:22.466Z,37.91
2019-04-04T17:58:51.111Z,38.05
2019-04-04T18:01:19.762Z,37.99
2019-04-04T18:03:49.430Z,37.96
2019-04-04T18:06:19.234Z,38.15
2019-04-04T18:08:54.419Z,38.37
2019-04-04T18:11:23.087Z,38.33
2019-04-04T18:13:51.818Z,37.78
2019-04-04T18:16:22.969Z,38.13
2019-04-04T18:18:51.641Z,38.17
2019-04-04T18:21:20.333Z,38.25
2019-04-04T18:23:48.973Z,38.64
2019-04-04T18:26:17.632Z,38.51
2019-04-04T18:28:46.330Z,38.54
2019-04-04T18:31:14.984Z,38.07
2019-04-04T18:33:43.650Z,38.73
2019-04-04T18:36:12.902Z,38.82
2019-04-04T18:38:41.677Z,38.81
2019-04-04T18:41:10.396Z,39.28
2019-04-04T18:43:39.042Z,39.46
2019-04-04T18:46:08.016Z,39.51
2019-04-04T18:48:36.595Z,39.71
2019-04-04T18:51:05.350Z,39.61
2019-04-04T18:53:34.108Z,39.67
2019-04-04T18:56:02.756Z,39.78
2019-04-04T18:58:31.339Z,39.52
2019-04-04T19:01:00.017Z,39.71
2019-04-04T19:03:29.878Z,39.84
2019-04-04T19:05:58.694Z,39.74
2019-04-04T19:08:27.440Z,40.30
2019-04-04T19:10:56.026Z,40.70
2019-04-04T19:13:25.725Z,40.92
2019-04-04T19:15:54.415Z,41.36
2019-04-04T19:18:24.500Z,41.84
2019-04-04T19:24:15.886Z,42.23
2019-04-04T19:26:48.446Z,42.62
2019-04-04T19:29:18.542Z,42.69
2019-04-04T19:31:47.194Z,42.62
2019-04-04T19:34:15.888Z,42.85
2019-04-04T19:36:44.617Z,42.99
2019-04-04T19:39:19.278Z,43.04
2019-04-04T19:41:51.097Z,43.23
2019-04-04T19:44:19.746Z,43.46
2019-04-04T19:46:48.406Z,43.80
2019-04-04T19:49:17.036Z,44.04
2019-04-04T19:51:45.688Z,43.97
2019-04-04T19:54:14.336Z,44.05
2019-04-04T19:56:44.829Z,43.98
2019-04-04T19:59:50.489Z,44.16
2019-04-04T20:02:20.229Z,44.45
2019-04-04T20:04:49.217Z,44.53
2019-04-04T20:07:19.144Z,44.56
2019-04-04T20:09:47.755Z,44.69
2019-04-04T20:12:16.436Z,44.80
2019-04-04T20:14:46.595Z,45.04
2019-04-04T20:17:15.255Z,45.01
2019-04-04T20:19:47.637Z,45.44
2019-04-04T20:22:16.368Z,45.48
2019-04-04T20:24:45.612Z,45.67
2019-04-04T20:27:14.576Z,45.62
2019-04-04T20:29:43.629Z,45.66
2019-04-04T20:32:12.337Z,45.78
2019-04-04T20:34:40.841Z,46.14
2019-04-04T20:37:11.433Z,46.16
2019-04-04T20:39:40.082Z,46.31
2019-04-04T20:42:08.743Z,46.52
2019-04-04T20:44:38.804Z,46.46
2019-04-04T20:47:07.386Z,46.67
2019-04-04T20:49:36.075Z,46.71
2019-04-04T20:52:05.050Z,46.83
2019-04-04T20:54:33.700Z,46.99
2019-04-04T20:57:02.399Z,47.02
2019-04-04T20:59:32.197Z,47.03
2019-04-04T21:02:00.844Z,47.24
2019-04-04T21:04:29.394Z,47.19
2019-04-04T21:06:58.035Z,47.39
2019-04-04T21:09:27.971Z,47.32
2019-04-04T21:11:56.668Z,47.41
2019-04-04T21:14:26.297Z,47.26
2019-04-04T21:16:54.942Z,47.08
2019-04-04T21:19:23.983Z,47.22
2019-04-04T21:21:52.657Z,47.15
2019-04-04T21:24:21.218Z,47.10
2019-04-04T21:26:50.466Z,46.59
2019-04-04T21:29:19.711Z,46.35
2019-04-04T21:31:48.365Z,46.35
2019-04-04T21:34:18.553Z,46.70
2019-04-04T21:36:47.134Z,46.68
2019-04-04T21:39:15.815Z,46.90
2019-04-04T21:41:44.465Z,46.76
2019-04-04T21:44:13.106Z,46.79
2019-04-04T21:46:41.674Z,46.69
2019-04-04T21:49:10.404Z,46.83
2019-04-04T21:51:38.954Z,46.87
2019-04-04T21:54:07.591Z,46.79
2019-04-04T21:56:36.286Z,46.87
2019-04-04T21:59:06.338Z,46.81
2019-04-04T22:01:35.082Z,46.85
2019-04-04T22:04:03.780Z,46.88
2019-04-04T22:06:32.418Z,46.84
2019-04-04T22:09:01.059Z,46.88
2019-04-04T22:11:29.681Z,46.83
2019-04-04T22:13:58.332Z,46.64
2019-04-04T22:16:26.907Z,46.74
2019-04-04T22:18:55.519Z,46.44
2019-04-04T22:21:24.101Z,46.32
2019-04-04T22:23:52.751Z,46.36
2019-04-04T22:26:21.436Z,46.20
2019-04-04T22:28:50.074Z,46.04
2019-04-04T22:31:18.721Z,46.26
2019-04-04T22:33:47.328Z,46.40
2019-04-04T22:36:15.980Z,46.38
2019-04-04T22:38:44.637Z,46.76
2019-04-04T22:41:14.215Z,46.82
2019-04-04T22:43:42.724Z,46.76
2019-04-04T22:46:11.382Z,46.54
2019-04-04T22:48:40.041Z,46.65
2019-04-04T22:51:08.692Z,46.74
2019-04-04T22:53:37.281Z,46.78
2019-04-04T22:56:05.923Z,46.98
2019-04-04T22:58:34.576Z,47.25
2019-04-04T23:01:03.269Z,47.33
2019-04-04T23:03:31.919Z,47.22
2019-04-04T23:06:00.568Z,47.87
2019-04-04T23:08:29.308Z,47.83
2019-04-04T23:10:57.879Z,47.80
2019-04-04T23:13:26.522Z,47.77
2019-04-04T23:15:55.222Z,47.85
2019-04-04T23:18:23.724Z,47.73
2019-04-04T23:20:52.380Z,47.90
2019-04-04T23:23:21.078Z,47.85
2019-04-04T23:25:49.980Z,47.84
2019-04-04T23:28:18.487Z,48.13
2019-04-04T23:30:47.168Z,47.99
2019-04-04T23:33:15.847Z,47.89
2019-04-04T23:35:44.465Z,48.23
2019-04-04T23:38:13.334Z,48.20
2019-04-04T23:40:42.308Z,48.03
2019-04-04T23:43:10.954Z,47.70
2019-04-04T23:45:39.614Z,47.55
2019-04-04T23:48:08.259Z,47.35
2019-04-04T23:50:36.901Z,47.46
2019-04-04T23:53:05.527Z,47.43
2019-04-04T23:55:34.109Z,46.73
2019-04-04T23:58:02.757Z,46.74
